sensor_id;sensor_type;location;lat;lon;timestamp;temperature;humidity
54124;DHT22;55741;53.252;5.788;2022-12-07T00:01:12;4.90;99.90
54124;DHT22;55741;53.252;5.788;2022-12-07T00:03:39;4.90;99.90
54124;DHT22;55741;53.252;5.788;2022-12-07T00:06:07;4.80;99.90
54124;DHT22;55741;53.252;5.788;2022-12-07T00:08:35;4.80;99.90
54124;DHT22;55741;53.252;5.788;2022-12-07T00:11:10;4.90;99.90
54124;DHT22;55741;53.252;5.788;2022-12-07T00:13:37;4.80;99.90
54124;DHT22;55741;53.252;5.788;2022-12-07T00:16:15;4.80;99.90
54124;DHT22;55741;53.252;5.788;2022-12-07T00:18:42;4.80;99.90
54124;DHT22;55741;53.252;5.788;2022-12-07T00:21:14;4.80;99.90
54124;DHT22;55741;53.252;5.788;2022-12-07T00:23:41;4.90;99.90
54124;DHT22;55741;53.252;5.788;2022-12-07T00:26:12;4.90;99.90
54124;DHT22;55741;53.252;5.788;2022-12-07T00:28:38;4.90;99.90
54124;DHT22;55741;53.252;5.788;2022-12-07T00:31:06;5.00;99.90
54124;DHT22;55741;53.252;5.788;2022-12-07T00:33:33;5.00;99.90
54124;DHT22;55741;53.252;5.788;2022-12-07T00:36:00;5.00;99.90
54124;DHT22;55741;53.252;5.788;2022-12-07T00:38:31;5.00;99.90
54124;DHT22;55741;53.252;5.788;2022-12-07T00:41:09;5.00;99.90
54124;DHT22;55741;53.252;5.788;2022-12-07T00:43:35;5.00;99.90
54124;DHT22;55741;53.252;5.788;2022-12-07T00:46:01;5.00;99.90
54124;DHT22;55741;53.252;5.788;2022-12-07T00:48:27;5.00;99.90
54124;DHT22;55741;53.252;5.788;2022-12-07T00:50:53;5.00;99.90
54124;DHT22;55741;53.252;5.788;2022-12-07T00:53:19;4.90;99.90
54124;DHT22;55741;53.252;5.788;2022-12-07T00:55:45;4.90;99.90
54124;DHT22;55741;53.252;5.788;2022-12-07T00:58:11;4.80;99.90
54124;DHT22;55741;53.252;5.788;2022-12-07T01:00:38;4.80;99.90
54124;DHT22;55741;53.252;5.788;2022-12-07T01:03:06;4.80;99.90
54124;DHT22;55741;53.252;5.788;2022-12-07T01:05:32;4.80;99.90
54124;DHT22;55741;53.252;5.788;2022-12-07T01:07:58;4.70;99.90
54124;DHT22;55741;53.252;5.788;2022-12-07T01:10:26;4.80;99.90
54124;DHT22;55741;53.252;5.788;2022-12-07T01:12:51;4.80;99.90
54124;DHT22;55741;53.252;5.788;2022-12-07T01:15:17;4.80;99.90
54124;DHT22;55741;53.252;5.788;2022-12-07T01:17:43;4.80;99.90
54124;DHT22;55741;53.252;5.788;2022-12-07T01:20:10;4.80;99.90
54124;DHT22;55741;53.252;5.788;2022-12-07T01:22:39;4.80;99.90
54124;DHT22;55741;53.252;5.788;2022-12-07T01:25:07;4.80;99.90
54124;DHT22;55741;53.252;5.788;2022-12-07T01:27:33;4.80;99.90
54124;DHT22;55741;53.252;5.788;2022-12-07T01:30:00;4.70;99.90
54124;DHT22;55741;53.252;5.788;2022-12-07T01:32:26;4.70;99.90
54124;DHT22;55741;53.252;5.788;2022-12-07T01:34:53;4.70;99.90
54124;DHT22;55741;53.252;5.788;2022-12-07T01:37:19;4.70;99.90
54124;DHT22;55741;53.252;5.788;2022-12-07T01:39:44;4.70;99.90
54124;DHT22;55741;53.252;5.788;2022-12-07T01:42:13;4.60;99.90
54124;DHT22;55741;53.252;5.788;2022-12-07T01:47:47;4.60;99.90
54124;DHT22;55741;53.252;5.788;2022-12-07T01:50:16;4.60;99.90
54124;DHT22;55741;53.252;5.788;2022-12-07T01:52:44;4.60;99.90
54124;DHT22;55741;53.252;5.788;2022-12-07T01:55:15;4.50;99.90
54124;DHT22;55741;53.252;5.788;2022-12-07T01:57:45;4.50;99.90
54124;DHT22;55741;53.252;5.788;2022-12-07T02:00:13;4.50;99.90
54124;DHT22;55741;53.252;5.788;2022-12-07T02:05:12;4.50;99.90
54124;DHT22;55741;53.252;5.788;2022-12-07T02:07:39;4.50;99.90
54124;DHT22;55741;53.252;5.788;2022-12-07T02:10:16;4.40;99.90
54124;DHT22;55741;53.252;5.788;2022-12-07T02:12:48;4.50;99.90
54124;DHT22;55741;53.252;5.788;2022-12-07T02:15:15;4.50;99.90
54124;DHT22;55741;53.252;5.788;2022-12-07T02:23:58;4.50;99.90
54124;DHT22;55741;53.252;5.788;2022-12-07T02:29:18;4.60;99.90
54124;DHT22;55741;53.252;5.788;2022-12-07T02:32:12;4.70;99.90
54124;DHT22;55741;53.252;5.788;2022-12-07T02:35:18;4.70;99.90
54124;DHT22;55741;53.252;5.788;2022-12-07T02:40:25;4.70;99.90
54124;DHT22;55741;53.252;5.788;2022-12-07T02:43:04;4.70;99.90
54124;DHT22;55741;53.252;5.788;2022-12-07T02:45:34;4.70;99.90
54124;DHT22;55741;53.252;5.788;2022-12-07T02:48:02;4.70;99.90
54124;DHT22;55741;53.252;5.788;2022-12-07T02:50:29;4.70;99.90
54124;DHT22;55741;53.252;5.788;2022-12-07T02:52:55;4.70;99.90
54124;DHT22;55741;53.252;5.788;2022-12-07T02:55:28;4.70;99.90
54124;DHT22;55741;53.252;5.788;2022-12-07T03:01:11;4.70;99.90
54124;DHT22;55741;53.252;5.788;2022-12-07T03:03:43;4.70;99.90
54124;DHT22;55741;53.252;5.788;2022-12-07T03:06:19;4.70;99.90
54124;DHT22;55741;53.252;5.788;2022-12-07T03:09:15;4.70;99.90
54124;DHT22;55741;53.252;5.788;2022-12-07T03:11:49;4.70;99.90
54124;DHT22;55741;53.252;5.788;2022-12-07T03:14:34;4.70;99.90
54124;DHT22;55741;53.252;5.788;2022-12-07T03:17:16;4.70;99.90
54124;DHT22;55741;53.252;5.788;2022-12-07T03:19:44;4.70;99.90
54124;DHT22;55741;53.252;5.788;2022-12-07T03:22:13;4.70;99.90
54124;DHT22;55741;53.252;5.788;2022-12-07T03:24:43;4.70;99.90
54124;DHT22;55741;53.252;5.788;2022-12-07T03:27:14;4.80;99.90
54124;DHT22;55741;53.252;5.788;2022-12-07T03:29:54;4.80;99.90
54124;DHT22;55741;53.252;5.788;2022-12-07T03:32:47;4.90;99.90
54124;DHT22;55741;53.252;5.788;2022-12-07T03:35:34;4.90;99.90
54124;DHT22;55741;53.252;5.788;2022-12-07T03:38:15;4.90;99.90
54124;DHT22;55741;53.252;5.788;2022-12-07T03:41:15;5.00;99.90
54124;DHT22;55741;53.252;5.788;2022-12-07T03:43:40;5.00;99.90
54124;DHT22;55741;53.252;5.788;2022-12-07T03:49:28;4.90;99.90
54124;DHT22;55741;53.252;5.788;2022-12-07T03:54:55;4.80;99.90
54124;DHT22;55741;53.252;5.788;2022-12-07T03:57:22;4.80;99.90
54124;DHT22;55741;53.252;5.788;2022-12-07T03:59:50;4.70;99.90
54124;DHT22;55741;53.252;5.788;2022-12-07T04:02:16;4.70;99.90
54124;DHT22;55741;53.252;5.788;2022-12-07T04:04:43;4.70;99.90
54124;DHT22;55741;53.252;5.788;2022-12-07T04:07:09;4.70;99.90
54124;DHT22;55741;53.252;5.788;2022-12-07T04:09:35;4.60;99.90
54124;DHT22;55741;53.252;5.788;2022-12-07T04:12:00;4.60;99.90
54124;DHT22;55741;53.252;5.788;2022-12-07T04:14:28;4.60;99.90
54124;DHT22;55741;53.252;5.788;2022-12-07T04:16:55;4.60;99.90
54124;DHT22;55741;53.252;5.788;2022-12-07T04:19:27;4.60;99.90
54124;DHT22;55741;53.252;5.788;2022-12-07T04:21:53;4.50;99.90
54124;DHT22;55741;53.252;5.788;2022-12-07T04:24:20;4.50;99.90
54124;DHT22;55741;53.252;5.788;2022-12-07T04:26:46;4.60;99.90
54124;DHT22;55741;53.252;5.788;2022-12-07T04:29:13;4.60;99.90
54124;DHT22;55741;53.252;5.788;2022-12-07T04:31:39;4.60;99.90
54124;DHT22;55741;53.252;5.788;2022-12-07T04:34:06;4.50;99.90
54124;DHT22;55741;53.252;5.788;2022-12-07T04:36:32;4.50;99.90
54124;DHT22;55741;53.252;5.788;2022-12-07T04:38:58;4.50;99.90
54124;DHT22;55741;53.252;5.788;2022-12-07T04:41:25;4.50;99.90
54124;DHT22;55741;53.252;5.788;2022-12-07T04:43:55;4.40;99.90
54124;DHT22;55741;53.252;5.788;2022-12-07T04:46:23;4.50;99.90
54124;DHT22;55741;53.252;5.788;2022-12-07T04:48:50;4.50;99.90
54124;DHT22;55741;53.252;5.788;2022-12-07T04:51:19;4.50;99.90
54124;DHT22;55741;53.252;5.788;2022-12-07T04:53:45;4.50;99.90
54124;DHT22;55741;53.252;5.788;2022-12-07T04:56:11;4.60;99.90
54124;DHT22;55741;53.252;5.788;2022-12-07T04:58:37;4.50;99.90
54124;DHT22;55741;53.252;5.788;2022-12-07T05:01:03;4.60;99.90
54124;DHT22;55741;53.252;5.788;2022-12-07T05:03:29;4.60;99.90
54124;DHT22;55741;53.252;5.788;2022-12-07T05:05:55;4.70;99.90
54124;DHT22;55741;53.252;5.788;2022-12-07T05:08:20;4.70;99.90
54124;DHT22;55741;53.252;5.788;2022-12-07T05:10:48;4.70;99.90
54124;DHT22;55741;53.252;5.788;2022-12-07T05:13:14;4.70;99.90
54124;DHT22;55741;53.252;5.788;2022-12-07T05:15:41;4.70;99.90
54124;DHT22;55741;53.252;5.788;2022-12-07T05:18:10;4.70;99.90
54124;DHT22;55741;53.252;5.788;2022-12-07T05:20:39;4.80;99.90
54124;DHT22;55741;53.252;5.788;2022-12-07T05:23:04;4.90;99.90
54124;DHT22;55741;53.252;5.788;2022-12-07T05:25:30;4.70;99.90
54124;DHT22;55741;53.252;5.788;2022-12-07T05:27:56;4.70;99.90
54124;DHT22;55741;53.252;5.788;2022-12-07T05:30:23;4.70;99.90
54124;DHT22;55741;53.252;5.788;2022-12-07T05:32:49;4.70;99.90
54124;DHT22;55741;53.252;5.788;2022-12-07T05:35:15;4.60;99.90
54124;DHT22;55741;53.252;5.788;2022-12-07T05:37:42;4.60;99.90
54124;DHT22;55741;53.252;5.788;2022-12-07T05:40:08;4.60;99.90
54124;DHT22;55741;53.252;5.788;2022-12-07T05:42:34;4.50;99.90
54124;DHT22;55741;53.252;5.788;2022-12-07T05:45:00;4.50;99.90
54124;DHT22;55741;53.252;5.788;2022-12-07T05:47:25;4.50;99.90
54124;DHT22;55741;53.252;5.788;2022-12-07T05:49:51;4.50;99.90
54124;DHT22;55741;53.252;5.788;2022-12-07T05:52:17;4.50;99.90
54124;DHT22;55741;53.252;5.788;2022-12-07T05:54:43;4.50;99.90
54124;DHT22;55741;53.252;5.788;2022-12-07T05:57:09;4.50;99.90
54124;DHT22;55741;53.252;5.788;2022-12-07T05:59:35;4.60;99.90
54124;DHT22;55741;53.252;5.788;2022-12-07T06:02:04;4.60;99.90
54124;DHT22;55741;53.252;5.788;2022-12-07T06:04:38;4.50;99.90
54124;DHT22;55741;53.252;5.788;2022-12-07T06:07:05;4.50;99.90
54124;DHT22;55741;53.252;5.788;2022-12-07T06:09:31;4.50;99.90
54124;DHT22;55741;53.252;5.788;2022-12-07T06:12:01;4.40;99.90
54124;DHT22;55741;53.252;5.788;2022-12-07T06:14:45;4.40;99.90
54124;DHT22;55741;53.252;5.788;2022-12-07T06:17:13;4.40;99.90
54124;DHT22;55741;53.252;5.788;2022-12-07T06:19:40;4.50;99.90
54124;DHT22;55741;53.252;5.788;2022-12-07T06:22:06;4.40;99.90
54124;DHT22;55741;53.252;5.788;2022-12-07T06:24:32;4.40;99.90
54124;DHT22;55741;53.252;5.788;2022-12-07T06:26:59;4.40;99.90
54124;DHT22;55741;53.252;5.788;2022-12-07T06:29:25;4.50;99.90
54124;DHT22;55741;53.252;5.788;2022-12-07T06:31:51;4.50;99.90
54124;DHT22;55741;53.252;5.788;2022-12-07T06:34:19;4.60;99.90
54124;DHT22;55741;53.252;5.788;2022-12-07T06:36:46;4.50;99.90
54124;DHT22;55741;53.252;5.788;2022-12-07T06:39:20;4.60;99.90
54124;DHT22;55741;53.252;5.788;2022-12-07T06:41:46;4.60;99.90
54124;DHT22;55741;53.252;5.788;2022-12-07T06:44:12;4.60;99.90
54124;DHT22;55741;53.252;5.788;2022-12-07T06:46:38;4.60;99.90
54124;DHT22;55741;53.252;5.788;2022-12-07T06:49:05;4.60;99.90
54124;DHT22;55741;53.252;5.788;2022-12-07T06:51:32;4.60;99.90
54124;DHT22;55741;53.252;5.788;2022-12-07T06:53:58;4.50;99.90
54124;DHT22;55741;53.252;5.788;2022-12-07T06:56:24;4.50;99.90
54124;DHT22;55741;53.252;5.788;2022-12-07T06:58:50;4.50;99.90
54124;DHT22;55741;53.252;5.788;2022-12-07T07:01:17;4.40;99.90
54124;DHT22;55741;53.252;5.788;2022-12-07T07:03:44;4.40;99.90
54124;DHT22;55741;53.252;5.788;2022-12-07T07:06:10;4.30;99.90
54124;DHT22;55741;53.252;5.788;2022-12-07T07:08:38;4.30;99.90
54124;DHT22;55741;53.252;5.788;2022-12-07T07:11:05;4.30;99.90
54124;DHT22;55741;53.252;5.788;2022-12-07T07:13:32;4.30;99.90
54124;DHT22;55741;53.252;5.788;2022-12-07T07:15:58;4.30;99.90
54124;DHT22;55741;53.252;5.788;2022-12-07T07:18:26;4.30;99.90
54124;DHT22;55741;53.252;5.788;2022-12-07T07:20:52;4.30;99.90
54124;DHT22;55741;53.252;5.788;2022-12-07T07:23:18;4.30;99.90
54124;DHT22;55741;53.252;5.788;2022-12-07T07:25:45;4.40;99.90
54124;DHT22;55741;53.252;5.788;2022-12-07T07:28:11;4.40;99.90
54124;DHT22;55741;53.252;5.788;2022-12-07T07:30:37;4.50;99.90
54124;DHT22;55741;53.252;5.788;2022-12-07T07:33:03;4.50;99.90
54124;DHT22;55741;53.252;5.788;2022-12-07T07:35:31;4.50;99.90
54124;DHT22;55741;53.252;5.788;2022-12-07T07:37:58;4.50;99.90
54124;DHT22;55741;53.252;5.788;2022-12-07T07:40:24;4.50;99.90
54124;DHT22;55741;53.252;5.788;2022-12-07T07:42:52;4.50;99.90
54124;DHT22;55741;53.252;5.788;2022-12-07T07:45:19;4.40;99.90
54124;DHT22;55741;53.252;5.788;2022-12-07T07:47:45;4.40;99.90
54124;DHT22;55741;53.252;5.788;2022-12-07T07:50:11;4.40;99.90
54124;DHT22;55741;53.252;5.788;2022-12-07T07:52:37;4.40;99.90
54124;DHT22;55741;53.252;5.788;2022-12-07T07:55:03;4.30;99.90
54124;DHT22;55741;53.252;5.788;2022-12-07T07:57:29;4.20;99.90
54124;DHT22;55741;53.252;5.788;2022-12-07T07:59:55;4.20;99.90
54124;DHT22;55741;53.252;5.788;2022-12-07T08:02:21;4.20;99.90
54124;DHT22;55741;53.252;5.788;2022-12-07T08:04:47;4.20;99.90
54124;DHT22;55741;53.252;5.788;2022-12-07T08:07:14;4.20;99.90
54124;DHT22;55741;53.252;5.788;2022-12-07T08:09:40;4.20;99.90
54124;DHT22;55741;53.252;5.788;2022-12-07T08:12:06;4.30;99.90
54124;DHT22;55741;53.252;5.788;2022-12-07T08:14:33;4.40;99.90
54124;DHT22;55741;53.252;5.788;2022-12-07T08:16:59;4.40;99.90
54124;DHT22;55741;53.252;5.788;2022-12-07T08:19:27;4.50;99.90
54124;DHT22;55741;53.252;5.788;2022-12-07T08:21:53;4.40;99.90
54124;DHT22;55741;53.252;5.788;2022-12-07T08:24:20;4.40;99.90
54124;DHT22;55741;53.252;5.788;2022-12-07T08:26:46;4.50;99.90
54124;DHT22;55741;53.252;5.788;2022-12-07T08:29:12;4.50;99.90
54124;DHT22;55741;53.252;5.788;2022-12-07T08:31:38;4.50;99.90
54124;DHT22;55741;53.252;5.788;2022-12-07T08:34:04;4.60;99.90
54124;DHT22;55741;53.252;5.788;2022-12-07T08:36:30;4.60;99.90
54124;DHT22;55741;53.252;5.788;2022-12-07T08:38:55;4.60;99.90
54124;DHT22;55741;53.252;5.788;2022-12-07T08:41:21;4.60;99.90
54124;DHT22;55741;53.252;5.788;2022-12-07T08:43:47;4.60;99.90
54124;DHT22;55741;53.252;5.788;2022-12-07T08:46:23;4.60;99.90
54124;DHT22;55741;53.252;5.788;2022-12-07T08:49:12;4.60;99.90
54124;DHT22;55741;53.252;5.788;2022-12-07T08:51:40;4.70;99.90
54124;DHT22;55741;53.252;5.788;2022-12-07T08:54:09;4.70;99.90
54124;DHT22;55741;53.252;5.788;2022-12-07T08:56:37;4.60;99.90
54124;DHT22;55741;53.252;5.788;2022-12-07T08:59:04;4.70;99.90
54124;DHT22;55741;53.252;5.788;2022-12-07T09:01:29;4.70;99.90
54124;DHT22;55741;53.252;5.788;2022-12-07T09:03:55;4.80;99.90
54124;DHT22;55741;53.252;5.788;2022-12-07T09:06:21;4.80;99.90
54124;DHT22;55741;53.252;5.788;2022-12-07T09:08:50;4.90;99.90
54124;DHT22;55741;53.252;5.788;2022-12-07T09:11:16;4.90;99.90
54124;DHT22;55741;53.252;5.788;2022-12-07T09:13:42;5.00;99.90
54124;DHT22;55741;53.252;5.788;2022-12-07T09:16:08;5.00;99.90
54124;DHT22;55741;53.252;5.788;2022-12-07T09:18:34;5.10;99.90
54124;DHT22;55741;53.252;5.788;2022-12-07T09:21:01;5.20;99.90
54124;DHT22;55741;53.252;5.788;2022-12-07T09:23:27;5.30;99.90
54124;DHT22;55741;53.252;5.788;2022-12-07T09:25:53;5.30;99.90
54124;DHT22;55741;53.252;5.788;2022-12-07T09:28:19;5.30;99.90
54124;DHT22;55741;53.252;5.788;2022-12-07T09:30:48;5.20;99.90
54124;DHT22;55741;53.252;5.788;2022-12-07T09:33:14;5.20;99.90
54124;DHT22;55741;53.252;5.788;2022-12-07T09:35:48;5.20;99.90
54124;DHT22;55741;53.252;5.788;2022-12-07T09:38:20;5.10;99.90
54124;DHT22;55741;53.252;5.788;2022-12-07T09:40:47;5.10;99.90
54124;DHT22;55741;53.252;5.788;2022-12-07T09:43:21;5.10;99.90
54124;DHT22;55741;53.252;5.788;2022-12-07T09:45:53;5.20;99.90
54124;DHT22;55741;53.252;5.788;2022-12-07T09:48:26;5.20;99.90
54124;DHT22;55741;53.252;5.788;2022-12-07T09:50:55;5.30;99.90
54124;DHT22;55741;53.252;5.788;2022-12-07T09:53:27;5.40;99.90
54124;DHT22;55741;53.252;5.788;2022-12-07T09:55:54;5.40;99.90
54124;DHT22;55741;53.252;5.788;2022-12-07T09:58:30;5.60;99.90
54124;DHT22;55741;53.252;5.788;2022-12-07T10:00:59;5.50;99.90
54124;DHT22;55741;53.252;5.788;2022-12-07T10:03:29;5.60;99.90
54124;DHT22;55741;53.252;5.788;2022-12-07T10:05:55;5.70;99.90
54124;DHT22;55741;53.252;5.788;2022-12-07T10:08:22;5.70;99.90
54124;DHT22;55741;53.252;5.788;2022-12-07T10:10:54;5.80;99.90
54124;DHT22;55741;53.252;5.788;2022-12-07T10:16:01;5.80;99.90
54124;DHT22;55741;53.252;5.788;2022-12-07T10:23:36;5.70;99.90
54124;DHT22;55741;53.252;5.788;2022-12-07T10:26:27;5.60;99.90
54124;DHT22;55741;53.252;5.788;2022-12-07T10:28:55;5.60;99.90
54124;DHT22;55741;53.252;5.788;2022-12-07T10:31:22;5.70;99.90
54124;DHT22;55741;53.252;5.788;2022-12-07T10:33:58;5.70;99.90
54124;DHT22;55741;53.252;5.788;2022-12-07T10:36:25;5.70;99.90
54124;DHT22;55741;53.252;5.788;2022-12-07T10:39:00;5.70;99.90
54124;DHT22;55741;53.252;5.788;2022-12-07T10:41:26;5.70;99.90
54124;DHT22;55741;53.252;5.788;2022-12-07T10:43:55;5.80;99.90
54124;DHT22;55741;53.252;5.788;2022-12-07T10:49:21;5.80;99.90
54124;DHT22;55741;53.252;5.788;2022-12-07T10:57:38;6.00;99.90
54124;DHT22;55741;53.252;5.788;2022-12-07T11:00:31;6.00;99.90
54124;DHT22;55741;53.252;5.788;2022-12-07T11:08:57;6.10;99.90
54124;DHT22;55741;53.252;5.788;2022-12-07T11:11:30;6.20;99.90
54124;DHT22;55741;53.252;5.788;2022-12-07T11:22:49;6.60;99.90
54124;DHT22;55741;53.252;5.788;2022-12-07T11:33:29;6.00;99.90
54124;DHT22;55741;53.252;5.788;2022-12-07T11:38:41;5.60;99.90
54124;DHT22;55741;53.252;5.788;2022-12-07T11:41:09;5.50;99.90
54124;DHT22;55741;53.252;5.788;2022-12-07T11:43:58;5.40;99.90
54124;DHT22;55741;53.252;5.788;2022-12-07T11:46:33;5.40;99.90
54124;DHT22;55741;53.252;5.788;2022-12-07T11:50:00;5.50;99.90
54124;DHT22;55741;53.252;5.788;2022-12-07T11:51:59;5.60;99.90
54124;DHT22;55741;53.252;5.788;2022-12-07T11:54:32;5.60;99.90
54124;DHT22;55741;53.252;5.788;2022-12-07T11:57:04;5.70;99.90
54124;DHT22;55741;53.252;5.788;2022-12-07T11:59:45;5.80;99.90
54124;DHT22;55741;53.252;5.788;2022-12-07T12:02:16;5.80;99.90
54124;DHT22;55741;53.252;5.788;2022-12-07T12:04:52;5.90;99.90
54124;DHT22;55741;53.252;5.788;2022-12-07T12:07:23;5.90;99.90
54124;DHT22;55741;53.252;5.788;2022-12-07T12:09:59;5.90;99.90
54124;DHT22;55741;53.252;5.788;2022-12-07T12:12:59;5.80;99.90
54124;DHT22;55741;53.252;5.788;2022-12-07T12:21:14;5.70;99.90
54124;DHT22;55741;53.252;5.788;2022-12-07T12:24:02;5.70;99.90
54124;DHT22;55741;53.252;5.788;2022-12-07T12:26:34;5.70;99.90
54124;DHT22;55741;53.252;5.788;2022-12-07T12:29:34;5.70;99.90
54124;DHT22;55741;53.252;5.788;2022-12-07T12:32:19;5.70;99.90
54124;DHT22;55741;53.252;5.788;2022-12-07T12:37:53;5.80;99.90
54124;DHT22;55741;53.252;5.788;2022-12-07T12:42:55;5.90;99.90
54124;DHT22;55741;53.252;5.788;2022-12-07T12:47:56;5.90;99.90
54124;DHT22;55741;53.252;5.788;2022-12-07T12:53:00;5.90;99.90
54124;DHT22;55741;53.252;5.788;2022-12-07T12:56:02;5.80;99.90
54124;DHT22;55741;53.252;5.788;2022-12-07T12:58:38;5.80;99.90
54124;DHT22;55741;53.252;5.788;2022-12-07T13:01:37;5.80;99.90
54124;DHT22;55741;53.252;5.788;2022-12-07T13:04:17;5.70;99.90
54124;DHT22;55741;53.252;5.788;2022-12-07T13:06:43;5.70;99.90
54124;DHT22;55741;53.252;5.788;2022-12-07T13:09:29;5.60;99.90
54124;DHT22;55741;53.252;5.788;2022-12-07T13:12:04;5.70;99.90
54124;DHT22;55741;53.252;5.788;2022-12-07T13:20:06;5.70;99.90
54124;DHT22;55741;53.252;5.788;2022-12-07T13:28:01;5.60;99.90
54124;DHT22;55741;53.252;5.788;2022-12-07T13:30:29;5.60;99.90
54124;DHT22;55741;53.252;5.788;2022-12-07T13:32:57;5.40;99.90
54124;DHT22;55741;53.252;5.788;2022-12-07T13:35:34;5.30;99.90
54124;DHT22;55741;53.252;5.788;2022-12-07T13:38:05;5.20;99.90
54124;DHT22;55741;53.252;5.788;2022-12-07T13:40:31;5.20;99.90
54124;DHT22;55741;53.252;5.788;2022-12-07T13:43:03;5.10;99.90
54124;DHT22;55741;53.252;5.788;2022-12-07T13:45:33;5.00;99.90
54124;DHT22;55741;53.252;5.788;2022-12-07T13:48:45;5.00;99.90
54124;DHT22;55741;53.252;5.788;2022-12-07T13:51:33;5.00;99.90
54124;DHT22;55741;53.252;5.788;2022-12-07T13:54:12;5.00;99.90
54124;DHT22;55741;53.252;5.788;2022-12-07T13:56:38;5.00;99.90
54124;DHT22;55741;53.252;5.788;2022-12-07T13:59:14;5.00;99.90
54124;DHT22;55741;53.252;5.788;2022-12-07T14:01:41;5.10;99.90
54124;DHT22;55741;53.252;5.788;2022-12-07T14:04:32;5.00;99.90
54124;DHT22;55741;53.252;5.788;2022-12-07T14:06:59;5.00;99.90
54124;DHT22;55741;53.252;5.788;2022-12-07T14:09:28;5.00;99.90
54124;DHT22;55741;53.252;5.788;2022-12-07T14:11:56;4.90;99.90
54124;DHT22;55741;53.252;5.788;2022-12-07T14:14:28;4.90;99.90
54124;DHT22;55741;53.252;5.788;2022-12-07T14:17:00;4.90;99.90
54124;DHT22;55741;53.252;5.788;2022-12-07T14:19:57;4.90;99.90
54124;DHT22;55741;53.252;5.788;2022-12-07T14:22:36;4.90;99.90
54124;DHT22;55741;53.252;5.788;2022-12-07T14:25:17;4.90;99.90
54124;DHT22;55741;53.252;5.788;2022-12-07T14:30:18;4.90;99.90
54124;DHT22;55741;53.252;5.788;2022-12-07T14:32:44;4.90;99.90
54124;DHT22;55741;53.252;5.788;2022-12-07T14:35:17;4.90;99.90
54124;DHT22;55741;53.252;5.788;2022-12-07T14:37:55;5.00;99.90
54124;DHT22;55741;53.252;5.788;2022-12-07T14:40:23;5.00;99.90
54124;DHT22;55741;53.252;5.788;2022-12-07T14:43:02;4.90;99.90
54124;DHT22;55741;53.252;5.788;2022-12-07T14:45:28;4.90;99.90
54124;DHT22;55741;53.252;5.788;2022-12-07T14:47:54;4.90;99.90
54124;DHT22;55741;53.252;5.788;2022-12-07T14:50:21;4.90;99.90
54124;DHT22;55741;53.252;5.788;2022-12-07T14:53:00;4.90;99.90
54124;DHT22;55741;53.252;5.788;2022-12-07T14:55:30;4.90;99.90
54124;DHT22;55741;53.252;5.788;2022-12-07T14:57:57;5.00;99.90
54124;DHT22;55741;53.252;5.788;2022-12-07T15:00:25;4.90;99.90
54124;DHT22;55741;53.252;5.788;2022-12-07T15:02:51;4.80;99.90
54124;DHT22;55741;53.252;5.788;2022-12-07T15:05:18;4.80;99.90
54124;DHT22;55741;53.252;5.788;2022-12-07T15:07:47;4.80;99.90
54124;DHT22;55741;53.252;5.788;2022-12-07T15:10:17;4.80;99.90
54124;DHT22;55741;53.252;5.788;2022-12-07T15:12:44;4.80;99.90
54124;DHT22;55741;53.252;5.788;2022-12-07T15:15:10;4.70;99.90
54124;DHT22;55741;53.252;5.788;2022-12-07T15:17:36;4.80;99.90
54124;DHT22;55741;53.252;5.788;2022-12-07T15:20:02;4.60;99.90
54124;DHT22;55741;53.252;5.788;2022-12-07T15:22:29;4.60;99.90
54124;DHT22;55741;53.252;5.788;2022-12-07T15:24:57;4.60;99.90
54124;DHT22;55741;53.252;5.788;2022-12-07T15:27:23;4.60;99.90
54124;DHT22;55741;53.252;5.788;2022-12-07T15:29:49;4.50;99.90
54124;DHT22;55741;53.252;5.788;2022-12-07T15:32:16;4.60;99.90
54124;DHT22;55741;53.252;5.788;2022-12-07T15:34:42;4.60;99.90
54124;DHT22;55741;53.252;5.788;2022-12-07T15:37:08;4.50;99.90
54124;DHT22;55741;53.252;5.788;2022-12-07T15:39:35;4.50;99.90
54124;DHT22;55741;53.252;5.788;2022-12-07T15:42:01;4.50;99.90
54124;DHT22;55741;53.252;5.788;2022-12-07T15:44:27;4.50;99.90
54124;DHT22;55741;53.252;5.788;2022-12-07T15:47:12;4.30;99.90
54124;DHT22;55741;53.252;5.788;2022-12-07T15:49:38;4.40;99.90
54124;DHT22;55741;53.252;5.788;2022-12-07T15:52:04;4.40;99.90
54124;DHT22;55741;53.252;5.788;2022-12-07T15:54:30;4.40;99.90
54124;DHT22;55741;53.252;5.788;2022-12-07T15:56:56;4.30;99.90
54124;DHT22;55741;53.252;5.788;2022-12-07T15:59:22;4.30;99.90
54124;DHT22;55741;53.252;5.788;2022-12-07T16:01:48;4.20;99.90
54124;DHT22;55741;53.252;5.788;2022-12-07T16:04:14;4.20;99.90
54124;DHT22;55741;53.252;5.788;2022-12-07T16:06:40;4.10;99.90
54124;DHT22;55741;53.252;5.788;2022-12-07T16:09:06;4.10;99.90
54124;DHT22;55741;53.252;5.788;2022-12-07T16:11:32;4.00;99.90
54124;DHT22;55741;53.252;5.788;2022-12-07T16:13:58;4.00;99.90
54124;DHT22;55741;53.252;5.788;2022-12-07T16:16:24;4.00;99.90
54124;DHT22;55741;53.252;5.788;2022-12-07T16:18:51;3.90;99.90
54124;DHT22;55741;53.252;5.788;2022-12-07T16:21:17;4.00;99.90
54124;DHT22;55741;53.252;5.788;2022-12-07T16:23:44;3.90;99.90
54124;DHT22;55741;53.252;5.788;2022-12-07T16:26:15;4.00;99.90
54124;DHT22;55741;53.252;5.788;2022-12-07T16:28:43;4.00;99.90
54124;DHT22;55741;53.252;5.788;2022-12-07T16:31:12;3.90;99.90
54124;DHT22;55741;53.252;5.788;2022-12-07T16:33:41;3.90;99.90
54124;DHT22;55741;53.252;5.788;2022-12-07T16:36:09;3.90;99.90
54124;DHT22;55741;53.252;5.788;2022-12-07T16:38:36;3.90;99.90
54124;DHT22;55741;53.252;5.788;2022-12-07T16:41:02;3.90;99.90
54124;DHT22;55741;53.252;5.788;2022-12-07T16:43:28;3.90;99.90
54124;DHT22;55741;53.252;5.788;2022-12-07T16:45:54;3.90;99.90
54124;DHT22;55741;53.252;5.788;2022-12-07T16:48:19;3.90;99.90
54124;DHT22;55741;53.252;5.788;2022-12-07T16:50:46;3.90;99.90
54124;DHT22;55741;53.252;5.788;2022-12-07T16:53:13;3.90;99.90
54124;DHT22;55741;53.252;5.788;2022-12-07T16:55:44;3.90;99.90
54124;DHT22;55741;53.252;5.788;2022-12-07T16:58:12;3.90;99.90
54124;DHT22;55741;53.252;5.788;2022-12-07T17:00:39;4.00;99.90
54124;DHT22;55741;53.252;5.788;2022-12-07T17:03:05;4.00;99.90
54124;DHT22;55741;53.252;5.788;2022-12-07T17:05:31;4.00;99.90
54124;DHT22;55741;53.252;5.788;2022-12-07T17:07:59;4.00;99.90
54124;DHT22;55741;53.252;5.788;2022-12-07T17:10:25;4.10;99.90
54124;DHT22;55741;53.252;5.788;2022-12-07T17:12:51;4.00;99.90
54124;DHT22;55741;53.252;5.788;2022-12-07T17:15:17;4.00;99.90
54124;DHT22;55741;53.252;5.788;2022-12-07T17:17:57;3.90;99.90
54124;DHT22;55741;53.252;5.788;2022-12-07T17:20:25;3.90;99.90
54124;DHT22;55741;53.252;5.788;2022-12-07T17:22:51;3.90;99.90
54124;DHT22;55741;53.252;5.788;2022-12-07T17:25:18;3.90;99.90
54124;DHT22;55741;53.252;5.788;2022-12-07T17:27:45;3.80;99.90
54124;DHT22;55741;53.252;5.788;2022-12-07T17:30:12;3.80;99.90
54124;DHT22;55741;53.252;5.788;2022-12-07T17:32:38;3.80;99.90
54124;DHT22;55741;53.252;5.788;2022-12-07T17:35:06;3.80;99.90
54124;DHT22;55741;53.252;5.788;2022-12-07T17:37:32;3.80;99.90
54124;DHT22;55741;53.252;5.788;2022-12-07T17:39:58;3.70;99.90